< < Back
Terminal Aerodrome Forecast


Current Version              Previous Versions:   1  2  3  4  5  6  7  8  9  

Terminal Aerodrome Forecast

708
FTUS42 KFFC 280100 AAA
TAFATL
TAF AMD
KATL 280130Z 2802/2906 VRB03KT P6SM SKC
     FM281400 27004KT P6SM FEW040
     FM281800 23005KT P6SM FEW060
     FM290200 VRB03KT P6SM FEW250=



Latest METAR

609
SAUS70 KWBC 280500 RRH
MTRATL
METAR KATL 280452Z 00000KT 10SM FEW250 24/17 A3006 RMK AO2 SLP167
T02390172 403110189


USA.gov is the U.S. government's official web portal to all federal, state and local government web resources and services.